sensor_id;sensor_type;location;lat;lon;timestamp;temperature;humidity
3308;DHT22;1666;48.898;9.182;2022-07-06T00:00:25;19.10;1.00
3308;DHT22;1666;48.898;9.182;2022-07-06T00:02:55;19.00;1.00
3308;DHT22;1666;48.898;9.182;2022-07-06T00:05:25;18.90;1.00
3308;DHT22;1666;48.898;9.182;2022-07-06T00:07:55;18.80;1.00
3308;DHT22;1666;48.898;9.182;2022-07-06T00:10:25;18.80;1.00
3308;DHT22;1666;48.898;9.182;2022-07-06T00:12:55;18.60;1.00
3308;DHT22;1666;48.898;9.182;2022-07-06T00:15:27;18.60;1.00
3308;DHT22;1666;48.898;9.182;2022-07-06T00:17:57;18.60;1.00
3308;DHT22;1666;48.898;9.182;2022-07-06T00:20:27;18.60;1.00
3308;DHT22;1666;48.898;9.182;2022-07-06T00:22:57;18.60;1.00
3308;DHT22;1666;48.898;9.182;2022-07-06T00:25:27;18.60;1.00
3308;DHT22;1666;48.898;9.182;2022-07-06T00:27:56;18.40;1.00
3308;DHT22;1666;48.898;9.182;2022-07-06T00:30:29;18.40;1.00
3308;DHT22;1666;48.898;9.182;2022-07-06T00:32:59;18.40;1.00
3308;DHT22;1666;48.898;9.182;2022-07-06T00:35:29;18.40;1.00
3308;DHT22;1666;48.898;9.182;2022-07-06T00:37:59;18.30;1.00
3308;DHT22;1666;48.898;9.182;2022-07-06T00:40:29;18.20;1.00
3308;DHT22;1666;48.898;9.182;2022-07-06T00:42:59;18.20;1.00
3308;DHT22;1666;48.898;9.182;2022-07-06T00:45:32;18.20;1.00
3308;DHT22;1666;48.898;9.182;2022-07-06T00:48:02;18.10;1.00
3308;DHT22;1666;48.898;9.182;2022-07-06T00:50:33;18.00;1.00
3308;DHT22;1666;48.898;9.182;2022-07-06T00:53:05;18.00;1.00
3308;DHT22;1666;48.898;9.182;2022-07-06T00:55:37;18.00;1.00
3308;DHT22;1666;48.898;9.182;2022-07-06T00:58:08;17.90;1.00
3308;DHT22;1666;48.898;9.182;2022-07-06T01:00:41;17.90;1.00
3308;DHT22;1666;48.898;9.182;2022-07-06T01:03:12;17.80;1.00
3308;DHT22;1666;48.898;9.182;2022-07-06T01:05:42;17.80;1.00
3308;DHT22;1666;48.898;9.182;2022-07-06T01:08:13;17.80;1.00
3308;DHT22;1666;48.898;9.182;2022-07-06T01:10:43;17.70;1.00
3308;DHT22;1666;48.898;9.182;2022-07-06T01:13:13;17.60;1.00
3308;DHT22;1666;48.898;9.182;2022-07-06T01:15:45;17.60;1.00
3308;DHT22;1666;48.898;9.182;2022-07-06T01:18:15;17.60;1.00
3308;DHT22;1666;48.898;9.182;2022-07-06T01:20:48;17.60;1.00
3308;DHT22;1666;48.898;9.182;2022-07-06T01:23:18;17.50;1.00
3308;DHT22;1666;48.898;9.182;2022-07-06T01:25:48;17.40;1.00
3308;DHT22;1666;48.898;9.182;2022-07-06T01:28:18;17.40;1.00
3308;DHT22;1666;48.898;9.182;2022-07-06T01:30:48;17.40;1.00
3308;DHT22;1666;48.898;9.182;2022-07-06T01:33:18;17.30;1.00
3308;DHT22;1666;48.898;9.182;2022-07-06T01:35:51;17.20;1.00
3308;DHT22;1666;48.898;9.182;2022-07-06T01:38:20;17.20;1.00
3308;DHT22;1666;48.898;9.182;2022-07-06T01:40:51;17.20;1.00
3308;DHT22;1666;48.898;9.182;2022-07-06T01:43:20;17.20;1.00
3308;DHT22;1666;48.898;9.182;2022-07-06T01:45:50;17.10;1.00
3308;DHT22;1666;48.898;9.182;2022-07-06T01:48:20;17.20;1.00
3308;DHT22;1666;48.898;9.182;2022-07-06T01:50:53;17.10;1.00
3308;DHT22;1666;48.898;9.182;2022-07-06T01:53:23;17.00;1.00
3308;DHT22;1666;48.898;9.182;2022-07-06T01:55:53;17.00;1.00
3308;DHT22;1666;48.898;9.182;2022-07-06T01:58:23;17.00;1.00
3308;DHT22;1666;48.898;9.182;2022-07-06T02:00:53;16.80;1.00
3308;DHT22;1666;48.898;9.182;2022-07-06T02:03:23;16.80;1.00
3308;DHT22;1666;48.898;9.182;2022-07-06T02:05:55;16.90;1.00
3308;DHT22;1666;48.898;9.182;2022-07-06T02:08:25;16.90;1.00
3308;DHT22;1666;48.898;9.182;2022-07-06T02:10:55;16.80;1.00
3308;DHT22;1666;48.898;9.182;2022-07-06T02:13:25;16.80;1.00
3308;DHT22;1666;48.898;9.182;2022-07-06T02:15:55;16.80;1.00
3308;DHT22;1666;48.898;9.182;2022-07-06T02:18:25;16.70;1.00
3308;DHT22;1666;48.898;9.182;2022-07-06T02:20:58;16.70;1.00
3308;DHT22;1666;48.898;9.182;2022-07-06T02:23:28;16.60;1.00
3308;DHT22;1666;48.898;9.182;2022-07-06T02:25:57;16.60;1.00
3308;DHT22;1666;48.898;9.182;2022-07-06T02:28:27;16.50;1.00
3308;DHT22;1666;48.898;9.182;2022-07-06T02:30:57;16.50;1.00
3308;DHT22;1666;48.898;9.182;2022-07-06T02:33:27;16.40;1.00
3308;DHT22;1666;48.898;9.182;2022-07-06T02:36:00;16.30;1.00
3308;DHT22;1666;48.898;9.182;2022-07-06T02:38:29;16.30;1.00
3308;DHT22;1666;48.898;9.182;2022-07-06T02:40:59;16.40;1.00
3308;DHT22;1666;48.898;9.182;2022-07-06T02:43:29;16.30;1.00
3308;DHT22;1666;48.898;9.182;2022-07-06T02:45:59;16.30;1.00
3308;DHT22;1666;48.898;9.182;2022-07-06T02:48:29;16.20;1.00
3308;DHT22;1666;48.898;9.182;2022-07-06T02:51:02;16.20;1.00
3308;DHT22;1666;48.898;9.182;2022-07-06T02:53:32;16.10;1.00
3308;DHT22;1666;48.898;9.182;2022-07-06T02:56:02;16.10;1.00
3308;DHT22;1666;48.898;9.182;2022-07-06T02:58:32;16.10;1.00
3308;DHT22;1666;48.898;9.182;2022-07-06T03:01:01;16.10;1.00
3308;DHT22;1666;48.898;9.182;2022-07-06T03:03:32;16.00;1.00
3308;DHT22;1666;48.898;9.182;2022-07-06T03:06:05;16.00;1.00
3308;DHT22;1666;48.898;9.182;2022-07-06T03:08:35;16.00;1.00
3308;DHT22;1666;48.898;9.182;2022-07-06T03:11:05;16.10;1.00
3308;DHT22;1666;48.898;9.182;2022-07-06T03:13:35;16.00;1.00
3308;DHT22;1666;48.898;9.182;2022-07-06T03:16:05;16.00;1.00
3308;DHT22;1666;48.898;9.182;2022-07-06T03:18:35;15.90;1.00
3308;DHT22;1666;48.898;9.182;2022-07-06T03:21:08;16.00;1.00
3308;DHT22;1666;48.898;9.182;2022-07-06T03:23:38;16.00;1.00
3308;DHT22;1666;48.898;9.182;2022-07-06T03:26:08;16.00;1.00
3308;DHT22;1666;48.898;9.182;2022-07-06T03:28:38;16.00;1.00
3308;DHT22;1666;48.898;9.182;2022-07-06T03:31:08;16.00;1.00
3308;DHT22;1666;48.898;9.182;2022-07-06T03:33:37;16.00;1.00
3308;DHT22;1666;48.898;9.182;2022-07-06T03:36:10;16.00;1.00
3308;DHT22;1666;48.898;9.182;2022-07-06T03:38:40;15.90;1.00
3308;DHT22;1666;48.898;9.182;2022-07-06T03:41:10;15.80;1.00
3308;DHT22;1666;48.898;9.182;2022-07-06T03:43:40;15.80;1.00
3308;DHT22;1666;48.898;9.182;2022-07-06T03:46:09;15.70;1.00
3308;DHT22;1666;48.898;9.182;2022-07-06T03:48:39;15.70;1.00
3308;DHT22;1666;48.898;9.182;2022-07-06T03:51:12;15.60;1.00
3308;DHT22;1666;48.898;9.182;2022-07-06T03:53:42;15.50;1.00
3308;DHT22;1666;48.898;9.182;2022-07-06T03:56:11;15.60;1.00
3308;DHT22;1666;48.898;9.182;2022-07-06T03:58:54;15.50;1.00
3308;DHT22;1666;48.898;9.182;2022-07-06T04:01:24;15.60;1.00
3308;DHT22;1666;48.898;9.182;2022-07-06T04:03:54;16.20;1.00
3308;DHT22;1666;48.898;9.182;2022-07-06T04:06:26;16.30;1.00
3308;DHT22;1666;48.898;9.182;2022-07-06T04:08:57;16.70;1.00
3308;DHT22;1666;48.898;9.182;2022-07-06T04:11:27;16.80;1.00
3308;DHT22;1666;48.898;9.182;2022-07-06T04:13:56;17.00;1.00
3308;DHT22;1666;48.898;9.182;2022-07-06T04:16:26;17.30;1.00
3308;DHT22;1666;48.898;9.182;2022-07-06T04:18:56;17.40;1.00
3308;DHT22;1666;48.898;9.182;2022-07-06T04:21:29;17.00;1.00
3308;DHT22;1666;48.898;9.182;2022-07-06T04:23:59;17.20;1.00
3308;DHT22;1666;48.898;9.182;2022-07-06T04:26:29;17.80;1.00
3308;DHT22;1666;48.898;9.182;2022-07-06T04:28:58;18.00;1.00
3308;DHT22;1666;48.898;9.182;2022-07-06T04:31:28;17.70;1.00
3308;DHT22;1666;48.898;9.182;2022-07-06T04:33:58;18.10;1.00
3308;DHT22;1666;48.898;9.182;2022-07-06T04:36:31;17.60;1.00
3308;DHT22;1666;48.898;9.182;2022-07-06T04:39:00;17.80;1.00
3308;DHT22;1666;48.898;9.182;2022-07-06T04:41:30;18.80;1.00
3308;DHT22;1666;48.898;9.182;2022-07-06T04:44:00;19.00;1.00
3308;DHT22;1666;48.898;9.182;2022-07-06T04:46:30;18.80;1.00
3308;DHT22;1666;48.898;9.182;2022-07-06T04:49:00;19.30;1.00
3308;DHT22;1666;48.898;9.182;2022-07-06T04:51:32;19.10;1.00
3308;DHT22;1666;48.898;9.182;2022-07-06T04:54:02;18.70;1.00
3308;DHT22;1666;48.898;9.182;2022-07-06T04:56:32;19.00;1.00
3308;DHT22;1666;48.898;9.182;2022-07-06T04:59:02;19.60;1.00
3308;DHT22;1666;48.898;9.182;2022-07-06T05:01:32;19.10;1.00
3308;DHT22;1666;48.898;9.182;2022-07-06T05:04:02;19.60;1.00
3308;DHT22;1666;48.898;9.182;2022-07-06T05:06:35;20.60;1.00
3308;DHT22;1666;48.898;9.182;2022-07-06T05:09:05;19.40;1.00
3308;DHT22;1666;48.898;9.182;2022-07-06T05:11:35;21.40;1.00
3308;DHT22;1666;48.898;9.182;2022-07-06T05:14:05;20.90;1.00
3308;DHT22;1666;48.898;9.182;2022-07-06T05:16:35;21.20;1.00
3308;DHT22;1666;48.898;9.182;2022-07-06T05:19:04;21.90;1.00
3308;DHT22;1666;48.898;9.182;2022-07-06T05:21:37;21.10;1.00
3308;DHT22;1666;48.898;9.182;2022-07-06T05:24:07;21.50;1.00
3308;DHT22;1666;48.898;9.182;2022-07-06T05:26:37;22.20;1.00
3308;DHT22;1666;48.898;9.182;2022-07-06T05:29:07;21.50;1.00
3308;DHT22;1666;48.898;9.182;2022-07-06T05:31:37;20.90;1.00
3308;DHT22;1666;48.898;9.182;2022-07-06T05:34:07;21.10;1.00
3308;DHT22;1666;48.898;9.182;2022-07-06T05:36:39;21.60;1.00
3308;DHT22;1666;48.898;9.182;2022-07-06T05:39:10;20.70;1.00
3308;DHT22;1666;48.898;9.182;2022-07-06T05:41:40;22.20;1.00
3308;DHT22;1666;48.898;9.182;2022-07-06T05:44:09;21.60;1.00
3308;DHT22;1666;48.898;9.182;2022-07-06T05:46:39;20.20;1.00
3308;DHT22;1666;48.898;9.182;2022-07-06T05:49:09;19.20;1.00
3308;DHT22;1666;48.898;9.182;2022-07-06T05:51:55;19.80;1.00
3308;DHT22;1666;48.898;9.182;2022-07-06T05:54:25;20.20;1.00
3308;DHT22;1666;48.898;9.182;2022-07-06T05:56:55;20.90;1.00
3308;DHT22;1666;48.898;9.182;2022-07-06T05:59:24;20.80;1.00
3308;DHT22;1666;48.898;9.182;2022-07-06T06:01:54;20.50;1.00
3308;DHT22;1666;48.898;9.182;2022-07-06T06:04:24;18.60;1.00
3308;DHT22;1666;48.898;9.182;2022-07-06T06:06:57;17.60;1.00
3308;DHT22;1666;48.898;9.182;2022-07-06T06:09:27;17.40;1.00
3308;DHT22;1666;48.898;9.182;2022-07-06T06:11:57;18.20;1.00
3308;DHT22;1666;48.898;9.182;2022-07-06T06:14:27;18.20;1.00
3308;DHT22;1666;48.898;9.182;2022-07-06T06:16:57;18.00;1.00
3308;DHT22;1666;48.898;9.182;2022-07-06T06:19:27;18.20;1.00
3308;DHT22;1666;48.898;9.182;2022-07-06T06:22:00;18.20;1.00
3308;DHT22;1666;48.898;9.182;2022-07-06T06:24:30;18.10;1.00
3308;DHT22;1666;48.898;9.182;2022-07-06T06:26:59;18.10;1.00
3308;DHT22;1666;48.898;9.182;2022-07-06T06:29:29;17.90;1.00
3308;DHT22;1666;48.898;9.182;2022-07-06T06:31:59;18.20;1.00
3308;DHT22;1666;48.898;9.182;2022-07-06T06:34:29;18.50;1.00
3308;DHT22;1666;48.898;9.182;2022-07-06T06:37:02;18.10;1.00
3308;DHT22;1666;48.898;9.182;2022-07-06T06:39:32;18.50;1.00
3308;DHT22;1666;48.898;9.182;2022-07-06T06:42:02;18.70;1.00
3308;DHT22;1666;48.898;9.182;2022-07-06T06:44:32;18.50;1.00
3308;DHT22;1666;48.898;9.182;2022-07-06T06:47:02;19.80;1.00
3308;DHT22;1666;48.898;9.182;2022-07-06T06:49:32;19.60;1.00
3308;DHT22;1666;48.898;9.182;2022-07-06T06:52:05;19.60;1.00
3308;DHT22;1666;48.898;9.182;2022-07-06T06:54:55;20.30;1.00
3308;DHT22;1666;48.898;9.182;2022-07-06T06:57:25;20.60;1.00
3308;DHT22;1666;48.898;9.182;2022-07-06T06:59:56;19.30;1.00
3308;DHT22;1666;48.898;9.182;2022-07-06T07:02:26;19.10;1.00
3308;DHT22;1666;48.898;9.182;2022-07-06T07:04:56;19.30;1.00
3308;DHT22;1666;48.898;9.182;2022-07-06T07:07:29;19.20;1.00
3308;DHT22;1666;48.898;9.182;2022-07-06T07:09:59;19.10;1.00
3308;DHT22;1666;48.898;9.182;2022-07-06T07:12:30;19.20;1.00
3308;DHT22;1666;48.898;9.182;2022-07-06T07:15:00;19.30;1.00
3308;DHT22;1666;48.898;9.182;2022-07-06T07:17:30;19.40;1.00
3308;DHT22;1666;48.898;9.182;2022-07-06T07:19:59;19.70;1.00
3308;DHT22;1666;48.898;9.182;2022-07-06T07:22:32;19.60;1.00
3308;DHT22;1666;48.898;9.182;2022-07-06T07:25:02;20.00;1.00
3308;DHT22;1666;48.898;9.182;2022-07-06T07:27:32;20.50;1.00
3308;DHT22;1666;48.898;9.182;2022-07-06T07:30:06;20.70;1.00
3308;DHT22;1666;48.898;9.182;2022-07-06T07:32:36;20.90;1.00
3308;DHT22;1666;48.898;9.182;2022-07-06T07:35:08;20.50;1.00
3308;DHT22;1666;48.898;9.182;2022-07-06T07:37:40;19.90;1.00
3308;DHT22;1666;48.898;9.182;2022-07-06T07:40:11;19.60;1.00
3308;DHT22;1666;48.898;9.182;2022-07-06T07:42:41;19.40;1.00
3308;DHT22;1666;48.898;9.182;2022-07-06T07:45:12;20.30;1.00
3308;DHT22;1666;48.898;9.182;2022-07-06T07:47:42;19.60;1.00
3308;DHT22;1666;48.898;9.182;2022-07-06T07:50:13;20.30;1.00
3308;DHT22;1666;48.898;9.182;2022-07-06T07:52:45;19.80;1.00
3308;DHT22;1666;48.898;9.182;2022-07-06T07:55:15;19.90;1.00
3308;DHT22;1666;48.898;9.182;2022-07-06T07:58:05;20.30;1.00
3308;DHT22;1666;48.898;9.182;2022-07-06T08:00:35;20.20;1.00
3308;DHT22;1666;48.898;9.182;2022-07-06T08:03:06;19.90;1.00
3308;DHT22;1666;48.898;9.182;2022-07-06T08:05:36;20.40;1.00
3308;DHT22;1666;48.898;9.182;2022-07-06T08:08:08;19.70;1.00
3308;DHT22;1666;48.898;9.182;2022-07-06T08:10:38;20.20;1.00
3308;DHT22;1666;48.898;9.182;2022-07-06T08:13:28;20.70;1.00
3308;DHT22;1666;48.898;9.182;2022-07-06T08:15:58;21.20;1.00
3308;DHT22;1666;48.898;9.182;2022-07-06T08:18:28;19.90;1.00
3308;DHT22;1666;48.898;9.182;2022-07-06T08:20:58;20.60;1.00
3308;DHT22;1666;48.898;9.182;2022-07-06T08:23:51;20.50;1.00
3308;DHT22;1666;48.898;9.182;2022-07-06T08:26:21;20.90;1.00
3308;DHT22;1666;48.898;9.182;2022-07-06T08:28:51;20.70;1.00
3308;DHT22;1666;48.898;9.182;2022-07-06T08:31:21;20.40;1.00
3308;DHT22;1666;48.898;9.182;2022-07-06T08:34:11;20.30;1.00
3308;DHT22;1666;48.898;9.182;2022-07-06T08:36:41;20.70;1.00
3308;DHT22;1666;48.898;9.182;2022-07-06T08:39:13;20.80;1.00
3308;DHT22;1666;48.898;9.182;2022-07-06T08:41:45;20.90;1.00
3308;DHT22;1666;48.898;9.182;2022-07-06T08:44:15;21.10;1.00
3308;DHT22;1666;48.898;9.182;2022-07-06T08:46:45;21.50;1.00
3308;DHT22;1666;48.898;9.182;2022-07-06T08:49:18;21.10;1.00
3308;DHT22;1666;48.898;9.182;2022-07-06T08:51:50;20.90;1.00
3308;DHT22;1666;48.898;9.182;2022-07-06T08:54:24;21.30;1.00
3308;DHT22;1666;48.898;9.182;2022-07-06T08:56:54;21.50;1.00
3308;DHT22;1666;48.898;9.182;2022-07-06T08:59:24;20.70;1.00
3308;DHT22;1666;48.898;9.182;2022-07-06T09:01:55;20.90;1.00
3308;DHT22;1666;48.898;9.182;2022-07-06T09:04:27;20.80;1.00
3308;DHT22;1666;48.898;9.182;2022-07-06T09:06:57;21.10;1.00
3308;DHT22;1666;48.898;9.182;2022-07-06T09:09:30;21.40;1.00
3308;DHT22;1666;48.898;9.182;2022-07-06T09:12:01;20.70;1.00
3308;DHT22;1666;48.898;9.182;2022-07-06T09:14:31;20.90;1.00
3308;DHT22;1666;48.898;9.182;2022-07-06T09:17:02;21.30;1.00
3308;DHT22;1666;48.898;9.182;2022-07-06T09:19:45;21.60;1.00
3308;DHT22;1666;48.898;9.182;2022-07-06T09:22:25;21.60;1.00
3308;DHT22;1666;48.898;9.182;2022-07-06T09:25:10;21.90;1.00
3308;DHT22;1666;48.898;9.182;2022-07-06T09:27:42;21.50;1.00
3308;DHT22;1666;48.898;9.182;2022-07-06T09:30:15;21.40;1.00
3308;DHT22;1666;48.898;9.182;2022-07-06T09:32:47;22.40;1.00
3308;DHT22;1666;48.898;9.182;2022-07-06T09:35:23;21.90;1.00
3308;DHT22;1666;48.898;9.182;2022-07-06T09:38:01;21.90;1.00
3308;DHT22;1666;48.898;9.182;2022-07-06T09:40:36;21.90;1.00
3308;DHT22;1666;48.898;9.182;2022-07-06T09:43:10;22.00;1.00
3308;DHT22;1666;48.898;9.182;2022-07-06T09:45:43;22.30;1.00
3308;DHT22;1666;48.898;9.182;2022-07-06T09:48:15;22.60;1.00
3308;DHT22;1666;48.898;9.182;2022-07-06T09:50:47;21.50;1.00
3308;DHT22;1666;48.898;9.182;2022-07-06T09:53:17;22.00;1.00
3308;DHT22;1666;48.898;9.182;2022-07-06T09:55:51;22.20;1.00
3308;DHT22;1666;48.898;9.182;2022-07-06T09:58:22;22.60;1.00
3308;DHT22;1666;48.898;9.182;2022-07-06T10:01:11;22.10;1.00
3308;DHT22;1666;48.898;9.182;2022-07-06T10:03:41;22.40;1.00
3308;DHT22;1666;48.898;9.182;2022-07-06T10:06:12;22.10;1.00
3308;DHT22;1666;48.898;9.182;2022-07-06T10:08:42;22.60;1.00
3308;DHT22;1666;48.898;9.182;2022-07-06T10:11:15;22.40;1.00
3308;DHT22;1666;48.898;9.182;2022-07-06T10:13:47;22.20;1.00
3308;DHT22;1666;48.898;9.182;2022-07-06T10:16:18;22.80;1.00
3308;DHT22;1666;48.898;9.182;2022-07-06T10:18:48;23.20;1.00
3308;DHT22;1666;48.898;9.182;2022-07-06T10:21:21;23.10;1.00
3308;DHT22;1666;48.898;9.182;2022-07-06T10:23:52;22.90;1.00
3308;DHT22;1666;48.898;9.182;2022-07-06T10:26:29;22.70;1.00
3308;DHT22;1666;48.898;9.182;2022-07-06T10:29:00;23.30;1.00
3308;DHT22;1666;48.898;9.182;2022-07-06T10:31:31;23.70;1.00
3308;DHT22;1666;48.898;9.182;2022-07-06T10:34:04;22.80;1.00
3308;DHT22;1666;48.898;9.182;2022-07-06T10:36:37;23.00;1.00
3308;DHT22;1666;48.898;9.182;2022-07-06T10:39:09;23.10;1.00
3308;DHT22;1666;48.898;9.182;2022-07-06T10:41:54;22.90;1.00
3308;DHT22;1666;48.898;9.182;2022-07-06T10:44:25;22.90;1.00
3308;DHT22;1666;48.898;9.182;2022-07-06T10:46:56;22.90;1.00
3308;DHT22;1666;48.898;9.182;2022-07-06T10:49:27;22.70;1.00
3308;DHT22;1666;48.898;9.182;2022-07-06T10:52:17;23.10;1.00
3308;DHT22;1666;48.898;9.182;2022-07-06T10:54:47;22.50;1.00
3308;DHT22;1666;48.898;9.182;2022-07-06T10:57:19;22.40;1.00
3308;DHT22;1666;48.898;9.182;2022-07-06T11:00:00;22.60;1.00
3308;DHT22;1666;48.898;9.182;2022-07-06T11:02:38;22.30;1.00
3308;DHT22;1666;48.898;9.182;2022-07-06T11:05:11;22.40;1.00
3308;DHT22;1666;48.898;9.182;2022-07-06T11:07:49;22.40;1.00
3308;DHT22;1666;48.898;9.182;2022-07-06T11:10:22;22.80;1.00
3308;DHT22;1666;48.898;9.182;2022-07-06T11:13:01;22.70;1.00
3308;DHT22;1666;48.898;9.182;2022-07-06T11:15:47;22.60;1.00
3308;DHT22;1666;48.898;9.182;2022-07-06T11:18:19;23.30;1.00
3308;DHT22;1666;48.898;9.182;2022-07-06T11:21:14;22.40;1.00
3308;DHT22;1666;48.898;9.182;2022-07-06T11:23:46;22.80;1.00
3308;DHT22;1666;48.898;9.182;2022-07-06T11:26:17;23.00;1.00
3308;DHT22;1666;48.898;9.182;2022-07-06T11:28:51;23.30;1.00
3308;DHT22;1666;48.898;9.182;2022-07-06T11:31:21;23.30;1.00
3308;DHT22;1666;48.898;9.182;2022-07-06T11:33:51;23.40;1.00
3308;DHT22;1666;48.898;9.182;2022-07-06T11:36:22;23.50;1.00
3308;DHT22;1666;48.898;9.182;2022-07-06T11:38:57;23.50;1.00
3308;DHT22;1666;48.898;9.182;2022-07-06T11:41:27;23.80;1.00
3308;DHT22;1666;48.898;9.182;2022-07-06T11:44:00;23.80;1.00
3308;DHT22;1666;48.898;9.182;2022-07-06T11:46:31;23.00;1.00
3308;DHT22;1666;48.898;9.182;2022-07-06T11:49:03;22.90;1.00
3308;DHT22;1666;48.898;9.182;2022-07-06T11:51:34;22.80;1.00
3308;DHT22;1666;48.898;9.182;2022-07-06T11:54:09;23.10;1.00
3308;DHT22;1666;48.898;9.182;2022-07-06T11:56:46;23.10;1.00
3308;DHT22;1666;48.898;9.182;2022-07-06T11:59:21;23.60;1.00
3308;DHT22;1666;48.898;9.182;2022-07-06T12:01:58;22.60;1.00
3308;DHT22;1666;48.898;9.182;2022-07-06T12:04:28;23.10;1.00
3308;DHT22;1666;48.898;9.182;2022-07-06T12:07:00;23.20;1.00
3308;DHT22;1666;48.898;9.182;2022-07-06T12:09:31;23.30;1.00
3308;DHT22;1666;48.898;9.182;2022-07-06T12:12:02;23.00;1.00
3308;DHT22;1666;48.898;9.182;2022-07-06T12:14:36;23.50;1.00
3308;DHT22;1666;48.898;9.182;2022-07-06T12:17:08;23.40;1.00
3308;DHT22;1666;48.898;9.182;2022-07-06T12:19:40;23.10;1.00
3308;DHT22;1666;48.898;9.182;2022-07-06T12:22:10;23.10;1.00
3308;DHT22;1666;48.898;9.182;2022-07-06T12:24:43;23.50;1.00
3308;DHT22;1666;48.898;9.182;2022-07-06T12:27:15;23.30;1.00
3308;DHT22;1666;48.898;9.182;2022-07-06T12:29:48;22.50;1.00
3308;DHT22;1666;48.898;9.182;2022-07-06T12:32:19;22.60;1.00
3308;DHT22;1666;48.898;9.182;2022-07-06T12:35:02;22.60;1.00
3308;DHT22;1666;48.898;9.182;2022-07-06T12:37:33;22.00;1.00
3308;DHT22;1666;48.898;9.182;2022-07-06T12:40:11;21.90;1.00
3308;DHT22;1666;48.898;9.182;2022-07-06T12:42:45;22.10;1.00
3308;DHT22;1666;48.898;9.182;2022-07-06T12:45:18;22.60;1.00
3308;DHT22;1666;48.898;9.182;2022-07-06T12:47:57;22.80;1.00
3308;DHT22;1666;48.898;9.182;2022-07-06T12:50:32;21.90;1.00
3308;DHT22;1666;48.898;9.182;2022-07-06T12:53:03;22.00;1.00
3308;DHT22;1666;48.898;9.182;2022-07-06T12:55:33;22.60;1.00
3308;DHT22;1666;48.898;9.182;2022-07-06T12:58:03;22.40;1.00
3308;DHT22;1666;48.898;9.182;2022-07-06T13:00:46;22.60;1.00
3308;DHT22;1666;48.898;9.182;2022-07-06T13:03:16;23.20;1.00
3308;DHT22;1666;48.898;9.182;2022-07-06T13:05:49;23.40;1.00
3308;DHT22;1666;48.898;9.182;2022-07-06T13:08:19;23.90;1.00
3308;DHT22;1666;48.898;9.182;2022-07-06T13:10:49;23.70;1.00
3308;DHT22;1666;48.898;9.182;2022-07-06T13:13:19;23.20;1.00
3308;DHT22;1666;48.898;9.182;2022-07-06T13:15:52;23.80;1.00
3308;DHT22;1666;48.898;9.182;2022-07-06T13:18:22;23.50;1.00
3308;DHT22;1666;48.898;9.182;2022-07-06T13:20:52;23.50;1.00
3308;DHT22;1666;48.898;9.182;2022-07-06T13:23:22;23.70;1.00
3308;DHT22;1666;48.898;9.182;2022-07-06T13:25:52;23.40;1.00
3308;DHT22;1666;48.898;9.182;2022-07-06T13:28:22;23.30;1.00
3308;DHT22;1666;48.898;9.182;2022-07-06T13:30:55;23.60;1.00
3308;DHT22;1666;48.898;9.182;2022-07-06T13:33:25;23.50;1.00
3308;DHT22;1666;48.898;9.182;2022-07-06T13:35:55;23.80;1.00
3308;DHT22;1666;48.898;9.182;2022-07-06T13:38:25;23.20;1.00
3308;DHT22;1666;48.898;9.182;2022-07-06T13:40:55;24.40;1.00
3308;DHT22;1666;48.898;9.182;2022-07-06T13:43:25;23.40;1.00
3308;DHT22;1666;48.898;9.182;2022-07-06T13:46:06;23.00;1.00
3308;DHT22;1666;48.898;9.182;2022-07-06T13:48:37;24.00;1.00
3308;DHT22;1666;48.898;9.182;2022-07-06T13:51:07;23.80;1.00
3308;DHT22;1666;48.898;9.182;2022-07-06T13:53:37;23.00;1.00
3308;DHT22;1666;48.898;9.182;2022-07-06T13:56:08;23.00;1.00
3308;DHT22;1666;48.898;9.182;2022-07-06T13:58:38;23.20;1.00
3308;DHT22;1666;48.898;9.182;2022-07-06T14:01:11;22.80;1.00
3308;DHT22;1666;48.898;9.182;2022-07-06T14:03:49;23.00;1.00
3308;DHT22;1666;48.898;9.182;2022-07-06T14:06:19;23.30;1.00
3308;DHT22;1666;48.898;9.182;2022-07-06T14:08:49;23.10;1.00
3308;DHT22;1666;48.898;9.182;2022-07-06T14:11:19;23.30;1.00
3308;DHT22;1666;48.898;9.182;2022-07-06T14:13:49;23.30;1.00
3308;DHT22;1666;48.898;9.182;2022-07-06T14:16:22;23.40;1.00
3308;DHT22;1666;48.898;9.182;2022-07-06T14:18:52;23.90;1.00
3308;DHT22;1666;48.898;9.182;2022-07-06T14:21:22;23.40;1.00
3308;DHT22;1666;48.898;9.182;2022-07-06T14:23:52;23.80;1.00
3308;DHT22;1666;48.898;9.182;2022-07-06T14:26:22;24.00;1.00
3308;DHT22;1666;48.898;9.182;2022-07-06T14:28:51;23.50;1.00
3308;DHT22;1666;48.898;9.182;2022-07-06T14:31:24;23.40;1.00
3308;DHT22;1666;48.898;9.182;2022-07-06T14:33:54;23.90;1.00
3308;DHT22;1666;48.898;9.182;2022-07-06T14:36:24;23.70;1.00
3308;DHT22;1666;48.898;9.182;2022-07-06T14:38:53;23.70;1.00
3308;DHT22;1666;48.898;9.182;2022-07-06T14:41:24;23.40;1.00
3308;DHT22;1666;48.898;9.182;2022-07-06T14:43:54;23.40;1.00
3308;DHT22;1666;48.898;9.182;2022-07-06T14:46:27;23.40;1.00
3308;DHT22;1666;48.898;9.182;2022-07-06T14:48:57;23.50;1.00
3308;DHT22;1666;48.898;9.182;2022-07-06T14:51:27;23.30;1.00
3308;DHT22;1666;48.898;9.182;2022-07-06T14:53:57;23.50;1.00
3308;DHT22;1666;48.898;9.182;2022-07-06T14:56:27;23.50;1.00
3308;DHT22;1666;48.898;9.182;2022-07-06T14:58:56;23.40;1.00
3308;DHT22;1666;48.898;9.182;2022-07-06T15:01:49;23.60;1.00
3308;DHT22;1666;48.898;9.182;2022-07-06T15:04:19;23.60;1.00
3308;DHT22;1666;48.898;9.182;2022-07-06T15:06:49;23.70;1.00
3308;DHT22;1666;48.898;9.182;2022-07-06T15:09:23;23.80;1.00
3308;DHT22;1666;48.898;9.182;2022-07-06T15:11:55;23.40;1.00
3308;DHT22;1666;48.898;9.182;2022-07-06T15:14:25;23.40;1.00
3308;DHT22;1666;48.898;9.182;2022-07-06T15:16:58;23.40;1.00
3308;DHT22;1666;48.898;9.182;2022-07-06T15:19:28;23.50;1.00
3308;DHT22;1666;48.898;9.182;2022-07-06T15:21:58;23.60;1.00
3308;DHT22;1666;48.898;9.182;2022-07-06T15:24:28;23.70;1.00
3308;DHT22;1666;48.898;9.182;2022-07-06T15:26:58;23.30;1.00
3308;DHT22;1666;48.898;9.182;2022-07-06T15:29:28;23.30;1.00
3308;DHT22;1666;48.898;9.182;2022-07-06T15:32:00;23.10;1.00
3308;DHT22;1666;48.898;9.182;2022-07-06T15:34:30;22.60;1.00
3308;DHT22;1666;48.898;9.182;2022-07-06T15:37:01;23.00;1.00
3308;DHT22;1666;48.898;9.182;2022-07-06T15:39:31;23.10;1.00
3308;DHT22;1666;48.898;9.182;2022-07-06T15:42:00;23.00;1.00
3308;DHT22;1666;48.898;9.182;2022-07-06T15:44:30;22.80;1.00
3308;DHT22;1666;48.898;9.182;2022-07-06T15:47:06;23.10;1.00
3308;DHT22;1666;48.898;9.182;2022-07-06T15:49:36;22.80;1.00
3308;DHT22;1666;48.898;9.182;2022-07-06T15:52:07;22.70;1.00
3308;DHT22;1666;48.898;9.182;2022-07-06T15:54:37;22.90;1.00
3308;DHT22;1666;48.898;9.182;2022-07-06T15:57:07;23.00;1.00
3308;DHT22;1666;48.898;9.182;2022-07-06T15:59:37;22.50;1.00
3308;DHT22;1666;48.898;9.182;2022-07-06T16:02:09;22.60;1.00
3308;DHT22;1666;48.898;9.182;2022-07-06T16:04:39;22.40;1.00
3308;DHT22;1666;48.898;9.182;2022-07-06T16:07:09;22.40;1.00
3308;DHT22;1666;48.898;9.182;2022-07-06T16:09:59;22.50;1.00
3308;DHT22;1666;48.898;9.182;2022-07-06T16:12:29;22.50;1.00
3308;DHT22;1666;48.898;9.182;2022-07-06T16:14:59;22.60;1.00
3308;DHT22;1666;48.898;9.182;2022-07-06T16:17:32;22.50;1.00
3308;DHT22;1666;48.898;9.182;2022-07-06T16:20:03;22.30;1.00
3308;DHT22;1666;48.898;9.182;2022-07-06T16:22:36;22.20;1.00
3308;DHT22;1666;48.898;9.182;2022-07-06T16:25:07;22.40;1.00
3308;DHT22;1666;48.898;9.182;2022-07-06T16:27:37;22.60;1.00
3308;DHT22;1666;48.898;9.182;2022-07-06T16:30:09;22.90;1.00
3308;DHT22;1666;48.898;9.182;2022-07-06T16:32:50;22.60;1.00
3308;DHT22;1666;48.898;9.182;2022-07-06T16:35:20;22.60;1.00
3308;DHT22;1666;48.898;9.182;2022-07-06T16:37:58;22.70;1.00
3308;DHT22;1666;48.898;9.182;2022-07-06T16:40:28;22.80;1.00
3308;DHT22;1666;48.898;9.182;2022-07-06T16:43:04;22.80;1.00
3308;DHT22;1666;48.898;9.182;2022-07-06T16:45:35;22.80;1.00